Limassol, Cyprus
Current Conditions -  °F | °C
As of 10:50 PM on Wednesday 26 Nov 2014 (Local Time) from LCRA Reporting Station
Scattered Clouds Scattered Clouds  
Wind Chill: 14°   Ceiling: Unl
Heat Index: 14°   Visibility: 6mi
Dew Point:   Wind: 7mph
Humidity: 55%   Direction: 300°WNW
Pressure: 29.88"   Gusts: NA
Location:  34.76°N, 32.95°E
Report Text: LCRA 261950Z 30006KT 9999 FEW050 SCT080 14/05 Q1012 NOSIG
Loading
Personal Weather Stations






























Interactive Weather Map New forecast layout! Learn more

10-Day Weather Forecast

Advertisements
Track Severe Weather on mobile